createdAt,value
2019-03-13T00:00:40.660Z,4.20
2019-03-13T00:04:39.305Z,4.20
2019-03-13T00:08:37.857Z,4.20
2019-03-13T00:12:36.362Z,4.20
2019-03-13T00:16:34.914Z,4.30
2019-03-13T00:20:33.787Z,4.20
2019-03-13T00:24:32.399Z,4.30
2019-03-13T00:28:30.957Z,4.30
2019-03-13T00:32:29.728Z,4.30
2019-03-13T00:36:28.295Z,4.30
2019-03-13T00:40:26.829Z,4.30
2019-03-13T00:44:25.427Z,4.30
2019-03-13T00:48:23.992Z,4.30
2019-03-13T00:52:23.196Z,4.30
2019-03-13T00:56:21.680Z,4.40
2019-03-13T01:00:39.009Z,4.30
2019-03-13T01:04:39.136Z,4.30
2019-03-13T01:08:37.720Z,4.30
2019-03-13T01:12:36.269Z,4.40
2019-03-13T01:16:34.834Z,4.30
2019-03-13T01:20:34.942Z,4.30
2019-03-13T01:24:33.564Z,4.30
2019-03-13T01:28:42.587Z,4.20
2019-03-13T01:32:42.759Z,4.00
2019-03-13T01:36:41.208Z,3.90
2019-03-13T01:40:39.718Z,3.80
2019-03-13T01:44:40.585Z,3.80
2019-03-13T01:48:38.506Z,4.00
2019-03-13T01:56:54.635Z,3.90
2019-03-13T02:00:53.149Z,3.80
2019-03-13T02:04:51.677Z,3.80
2019-03-13T02:08:50.220Z,3.70
2019-03-13T02:12:48.808Z,3.80
2019-03-13T02:16:47.335Z,3.80
2019-03-13T02:20:45.907Z,3.70
2019-03-13T02:24:44.495Z,3.90
2019-03-13T02:28:43.044Z,4.20
2019-03-13T02:32:41.619Z,4.20
2019-03-13T02:36:40.165Z,4.20
2019-03-13T02:40:38.714Z,4.30
2019-03-13T02:44:37.299Z,4.30
2019-03-13T02:48:35.839Z,4.30
2019-03-13T02:52:34.350Z,4.40
2019-03-13T02:56:32.990Z,4.60
2019-03-13T03:00:49.627Z,4.60
2019-03-13T03:04:48.641Z,4.70
2019-03-13T03:08:49.934Z,4.70
2019-03-13T03:12:48.496Z,4.70
2019-03-13T03:16:47.101Z,4.60
2019-03-13T03:20:45.618Z,4.60
2019-03-13T03:24:44.195Z,4.70
2019-03-13T03:28:42.895Z,4.80
2019-03-13T03:32:42.003Z,4.80
2019-03-13T03:36:40.568Z,4.90
2019-03-13T03:40:39.112Z,5.00
2019-03-13T03:44:37.668Z,5.00
2019-03-13T03:48:57.181Z,5.00
2019-03-13T03:52:58.840Z,4.90
2019-03-13T03:56:59.639Z,4.80
2019-03-13T04:00:58.222Z,4.80
2019-03-13T04:04:57.010Z,4.80
2019-03-13T04:08:55.597Z,4.90
2019-03-13T04:12:54.162Z,5.00
2019-03-13T04:16:52.722Z,5.10
2019-03-13T04:20:51.336Z,5.20
2019-03-13T04:24:53.259Z,5.20
2019-03-13T04:28:51.864Z,5.30
2019-03-13T04:32:50.428Z,5.20
2019-03-13T04:36:48.969Z,5.30
2019-03-13T04:40:47.479Z,5.30
2019-03-13T04:44:46.019Z,5.40
2019-03-13T04:48:44.471Z,5.40
2019-03-13T04:52:43.270Z,5.40
2019-03-13T04:56:44.187Z,5.40
2019-03-13T05:00:42.719Z,5.40
2019-03-13T05:04:41.300Z,5.40
2019-03-13T05:08:45.338Z,5.40
2019-03-13T05:12:42.560Z,5.40
2019-03-13T05:16:41.091Z,5.50
2019-03-13T05:20:39.658Z,5.50
2019-03-13T05:24:38.557Z,5.50
2019-03-13T05:28:39.719Z,5.60
2019-03-13T05:32:38.816Z,5.60
2019-03-13T05:36:37.373Z,5.60
2019-03-13T05:40:35.928Z,5.70
2019-03-13T05:44:34.525Z,5.70
2019-03-13T05:48:33.043Z,5.70
2019-03-13T05:52:31.523Z,5.70
2019-03-13T05:56:30.081Z,5.70
2019-03-13T06:00:29.721Z,5.70
2019-03-13T06:04:28.281Z,5.70
2019-03-13T06:08:27.379Z,5.70
2019-03-13T06:12:25.924Z,5.80
2019-03-13T06:16:24.769Z,5.80
2019-03-13T06:20:23.312Z,5.90
2019-03-13T06:24:22.137Z,5.90
2019-03-13T06:28:21.296Z,5.90
2019-03-13T06:32:19.835Z,5.90
2019-03-13T06:36:18.388Z,6.00
2019-03-13T06:40:18.501Z,6.00
2019-03-13T06:44:17.051Z,5.90
2019-03-13T06:48:15.557Z,5.80
2019-03-13T06:52:14.084Z,5.80
2019-03-13T06:56:13.088Z,5.70
2019-03-13T07:00:36.277Z,5.50
2019-03-13T07:04:43.064Z,5.50
2019-03-13T07:08:43.193Z,5.50
2019-03-13T07:12:47.793Z,5.60
2019-03-13T07:16:53.926Z,5.60
2019-03-13T07:20:57.065Z,5.50
2019-03-13T07:25:00.288Z,5.40
2019-03-13T07:29:12.912Z,5.20
2019-03-13T07:33:31.532Z,5.20
2019-03-13T07:37:51.016Z,5.30
2019-03-13T07:42:09.418Z,5.40
2019-03-13T07:46:09.681Z,5.60
2019-03-13T07:50:11.760Z,5.70
2019-03-13T07:54:16.196Z,5.70
2019-03-13T07:58:16.368Z,5.60
2019-03-13T08:02:22.456Z,5.50
2019-03-13T08:06:28.702Z,5.60
2019-03-13T08:10:45.172Z,5.70
2019-03-13T08:14:48.312Z,5.80
2019-03-13T08:19:06.897Z,5.70
2019-03-13T08:23:09.807Z,5.80
2019-03-13T08:27:22.222Z,5.80
2019-03-13T08:31:31.183Z,6.00
2019-03-13T08:35:43.142Z,6.00
2019-03-13T08:39:43.303Z,6.20
2019-03-13T08:43:52.328Z,6.40
2019-03-13T08:48:01.397Z,6.50
2019-03-13T08:52:17.730Z,6.50
2019-03-13T08:56:18.205Z,6.40
2019-03-13T09:00:33.482Z,6.10
2019-03-13T09:04:33.661Z,5.90
2019-03-13T09:08:52.715Z,5.80
2019-03-13T09:13:01.026Z,6.00
2019-03-13T09:17:00.213Z,6.30
2019-03-13T09:21:06.343Z,6.50
2019-03-13T09:25:24.536Z,6.70
2019-03-13T09:29:30.977Z,6.80
2019-03-13T09:33:46.375Z,6.80
2019-03-13T09:37:46.596Z,6.60
2019-03-13T09:41:58.794Z,6.40
2019-03-13T09:46:04.694Z,6.10
2019-03-13T09:50:11.425Z,5.80
2019-03-13T09:54:17.419Z,5.60
2019-03-13T09:58:26.751Z,5.40
2019-03-13T10:02:26.931Z,5.30
2019-03-13T10:06:29.854Z,5.10
2019-03-13T10:10:45.922Z,5.10
2019-03-13T10:14:55.130Z,5.10
2019-03-13T10:19:04.254Z,5.10
2019-03-13T10:23:04.437Z,5.50
2019-03-13T10:27:04.646Z,5.70
2019-03-13T10:31:13.505Z,6.00
2019-03-13T10:35:20.021Z,6.20
2019-03-13T10:39:25.984Z,6.20
2019-03-13T10:43:34.990Z,6.10
2019-03-13T10:47:53.401Z,6.00
2019-03-13T10:51:56.565Z,6.10
2019-03-13T10:56:12.699Z,6.30
2019-03-13T11:00:15.211Z,6.20
2019-03-13T11:04:16.955Z,6.10
2019-03-13T11:08:29.088Z,6.00
2019-03-13T11:12:31.777Z,6.10
2019-03-13T11:16:34.915Z,6.10
2019-03-13T11:20:42.071Z,6.10
2019-03-13T11:24:42.283Z,6.20
2019-03-13T11:28:45.248Z,6.30
2019-03-13T11:33:00.625Z,6.30
2019-03-13T11:37:05.709Z,6.40
2019-03-13T11:41:08.931Z,6.40
2019-03-13T11:49:25.751Z,6.40
2019-03-13T11:53:29.118Z,6.30
2019-03-13T11:57:45.460Z,6.30
2019-03-13T12:01:51.696Z,6.10
2019-03-13T12:06:00.614Z,6.10
2019-03-13T12:10:19.046Z,6.20
2019-03-13T12:14:19.247Z,6.50
2019-03-13T12:18:19.462Z,6.50
2019-03-13T12:22:35.928Z,6.40
2019-03-13T12:26:52.668Z,6.40
2019-03-13T12:31:04.846Z,6.40
2019-03-13T12:35:23.535Z,6.30
2019-03-13T12:39:39.914Z,6.20
2019-03-13T12:43:55.099Z,6.00
2019-03-13T12:48:15.898Z,5.90
2019-03-13T12:52:16.370Z,5.80
2019-03-13T12:56:19.574Z,5.70
2019-03-13T13:00:20.624Z,5.70
2019-03-13T13:04:23.758Z,5.60
2019-03-13T13:08:27.038Z,5.60
2019-03-13T13:12:32.939Z,5.70
2019-03-13T13:16:48.459Z,5.70
2019-03-13T13:20:47.031Z,5.80
2019-03-13T13:24:45.582Z,5.70
2019-03-13T13:28:44.306Z,5.70
2019-03-13T13:32:42.869Z,5.80
2019-03-13T13:36:41.434Z,6.00
2019-03-13T13:40:40.078Z,6.10
2019-03-13T13:44:38.692Z,6.10
2019-03-13T13:48:37.549Z,6.10
2019-03-13T13:52:39.023Z,6.10
2019-03-13T13:56:37.646Z,6.10
2019-03-13T14:00:36.286Z,5.90
2019-03-13T14:04:34.834Z,5.80
2019-03-13T14:08:33.394Z,5.90
2019-03-13T14:12:31.980Z,5.80
2019-03-13T14:16:30.550Z,5.80
2019-03-13T14:20:29.106Z,5.70
2019-03-13T14:24:27.677Z,5.70
2019-03-13T14:28:26.246Z,5.80
2019-03-13T14:32:24.825Z,5.80
2019-03-13T14:36:23.367Z,5.90
2019-03-13T14:40:22.056Z,5.90
2019-03-13T14:44:20.599Z,5.90
2019-03-13T14:48:22.779Z,6.00
2019-03-13T14:52:21.608Z,6.00
2019-03-13T14:56:20.250Z,5.90
2019-03-13T15:00:24.276Z,6.00
2019-03-13T15:04:22.870Z,6.00
2019-03-13T15:08:21.449Z,5.90
2019-03-13T15:12:21.132Z,5.80
2019-03-13T15:16:19.682Z,5.60
2019-03-13T15:20:28.721Z,5.30
2019-03-13T15:24:27.284Z,5.40
2019-03-13T15:28:25.825Z,5.70
2019-03-13T15:32:24.710Z,6.00
2019-03-13T15:36:24.124Z,5.80
2019-03-13T15:40:23.036Z,5.80
2019-03-13T15:44:21.597Z,5.70
2019-03-13T15:48:20.130Z,5.70
2019-03-13T15:52:18.694Z,5.80
2019-03-13T15:56:29.321Z,5.70
2019-03-13T16:00:31.418Z,5.60
2019-03-13T16:04:29.981Z,5.50
2019-03-13T16:08:31.298Z,5.50
2019-03-13T16:12:29.875Z,5.40
2019-03-13T16:16:28.450Z,5.40
2019-03-13T16:20:27.350Z,5.50
2019-03-13T16:24:25.906Z,5.60
2019-03-13T16:28:24.567Z,5.60
2019-03-13T16:32:23.136Z,5.70
2019-03-13T16:36:21.844Z,5.70
2019-03-13T16:40:22.577Z,5.60
2019-03-13T16:44:21.993Z,5.50
2019-03-13T16:48:20.546Z,5.40
2019-03-13T16:52:19.121Z,5.40
2019-03-13T16:56:17.724Z,5.30
2019-03-13T17:00:19.128Z,5.30
2019-03-13T17:04:17.706Z,5.20
2019-03-13T17:08:18.643Z,5.20
2019-03-13T17:12:17.602Z,5.20
2019-03-13T17:16:16.270Z,5.20
2019-03-13T17:20:20.320Z,5.10
2019-03-13T17:24:18.886Z,5.10
2019-03-13T17:28:17.463Z,5.00
2019-03-13T17:32:16.045Z,4.90
2019-03-13T17:36:17.758Z,4.80
2019-03-13T17:40:27.911Z,4.70
2019-03-13T17:44:26.507Z,4.60
2019-03-13T17:48:25.092Z,4.60
2019-03-13T17:52:23.634Z,4.70
2019-03-13T17:56:22.288Z,4.80
2019-03-13T18:00:33.473Z,4.80
2019-03-13T18:04:32.341Z,4.90
2019-03-13T18:08:30.903Z,4.80
2019-03-13T18:12:29.452Z,4.80
2019-03-13T18:16:28.449Z,4.80
2019-03-13T18:20:27.011Z,4.90
2019-03-13T18:24:28.476Z,4.90
2019-03-13T18:28:27.124Z,5.10
2019-03-13T18:32:25.676Z,5.10
2019-03-13T18:36:24.214Z,5.10
2019-03-13T18:40:24.033Z,5.20
2019-03-13T18:44:22.592Z,5.20
2019-03-13T18:48:21.186Z,5.30
2019-03-13T18:52:20.100Z,5.40
2019-03-13T18:56:19.082Z,5.30
2019-03-13T19:00:20.570Z,5.40
2019-03-13T19:04:20.768Z,5.40
2019-03-13T19:08:19.380Z,5.50
2019-03-13T19:12:20.652Z,5.50
2019-03-13T19:16:22.908Z,5.40
2019-03-13T19:20:25.752Z,5.50
2019-03-13T19:24:24.652Z,5.40
2019-03-13T19:28:23.208Z,5.30
2019-03-13T19:32:21.785Z,5.30
2019-03-13T19:36:20.313Z,5.10
2019-03-13T19:40:20.714Z,5.10
2019-03-13T19:44:19.478Z,5.10
2019-03-13T19:48:18.036Z,5.10
2019-03-13T19:52:16.617Z,5.10
2019-03-13T19:56:15.172Z,5.20
2019-03-13T20:00:20.640Z,5.30
2019-03-13T20:04:19.219Z,5.30
2019-03-13T20:08:17.912Z,5.30
2019-03-13T20:12:16.484Z,5.30
2019-03-13T20:16:15.095Z,5.30
2019-03-13T20:20:16.777Z,5.20
2019-03-13T20:24:15.394Z,5.20
2019-03-13T20:28:14.105Z,5.30
2019-03-13T20:32:12.638Z,5.30
2019-03-13T20:36:11.227Z,5.30
2019-03-13T20:40:18.148Z,5.20
2019-03-13T20:44:16.763Z,5.20
2019-03-13T20:48:15.481Z,5.10
2019-03-13T20:52:14.017Z,5.00
2019-03-13T20:56:12.581Z,5.10
2019-03-13T21:00:20.776Z,5.20
2019-03-13T21:04:19.732Z,5.20
2019-03-13T21:08:18.294Z,5.10
2019-03-13T21:12:16.847Z,5.00
2019-03-13T21:16:15.422Z,4.90
2019-03-13T21:20:18.570Z,4.80
2019-03-13T21:24:20.021Z,4.70
2019-03-13T21:28:18.540Z,4.60
2019-03-13T21:32:19.063Z,4.60
2019-03-13T21:36:17.580Z,4.60
2019-03-13T21:40:21.779Z,4.50
2019-03-13T21:44:20.655Z,4.60
2019-03-13T21:48:19.157Z,4.60
2019-03-13T21:52:17.668Z,4.70
2019-03-13T21:56:16.552Z,4.60
2019-03-13T22:00:26.729Z,4.80
2019-03-13T22:04:25.317Z,4.90
2019-03-13T22:08:23.871Z,4.80
2019-03-13T22:12:22.462Z,4.70
2019-03-13T22:16:21.004Z,4.80
2019-03-13T22:20:20.323Z,4.80
2019-03-13T22:24:18.891Z,4.90
2019-03-13T22:28:18.799Z,4.80
2019-03-13T22:32:17.715Z,4.80
2019-03-13T22:36:16.260Z,4.80
2019-03-13T22:40:16.362Z,4.80
2019-03-13T22:44:14.983Z,4.90
2019-03-13T22:48:13.535Z,5.10
2019-03-13T22:52:12.092Z,5.10
2019-03-13T22:56:10.649Z,5.10
2019-03-13T23:00:25.530Z,5.20
2019-03-13T23:04:25.206Z,5.20
2019-03-13T23:08:24.181Z,5.10
2019-03-13T23:12:23.166Z,5.20
2019-03-13T23:16:23.882Z,5.20
2019-03-13T23:20:21.990Z,5.10
2019-03-13T23:24:23.614Z,5.10
2019-03-13T23:28:24.337Z,5.20
2019-03-13T23:32:22.903Z,5.30
2019-03-13T23:36:21.648Z,5.30
2019-03-13T23:40:20.451Z,5.20
2019-03-13T23:44:19.001Z,5.10
2019-03-13T23:48:17.555Z,5.00
2019-03-13T23:52:16.050Z,5.10
2019-03-13T23:56:14.610Z,5.20
